Time;durP1;ratioP1;P1;durP2;ratioP2;P2;SDS_P1;SDS_P2;PMS_P1;PMS_P2;Temp;Humidity;BMP_temperature;BMP_pressure;BME280_temperature;BME280_humidity;BME280_pressure;Samples;Min_cycle;Max_cycle;Signal;HPM_P1;HPM_P2
2023/04/04 00:00:14;;;;;;;5.10;2.25;;;4.20;99.90;;;;;;4986318;28;20073;-87
2023/04/04 00:02:40;;;;;;;4.68;1.67;;;4.20;99.90;;;;;;4987291;28;20798;-86
2023/04/04 00:05:07;;;;;;;6.15;2.28;;;4.20;99.90;;;;;;4986134;28;20037;-86
2023/04/04 00:07:33;;;;;;;5.28;2.20;;;4.20;99.90;;;;;;4989506;28;20356;-87
2023/04/04 00:09:58;;;;;;;6.30;2.45;;;4.10;99.90;;;;;;4989849;28;20499;-87
2023/04/04 00:12:24;;;;;;;5.90;2.38;;;4.10;99.90;;;;;;4994587;28;20042;-87
2023/04/04 00:14:50;;;;;;;4.60;1.92;;;4.10;99.90;;;;;;4986670;28;20080;-86
2023/04/04 00:17:16;;;;;;;6.50;2.20;;;4.20;99.90;;;;;;4986680;28;20108;-86
2023/04/04 00:19:42;;;;;;;6.25;2.20;;;4.20;99.90;;;;;;4990100;28;20084;-87
2023/04/04 00:22:08;;;;;;;5.97;2.58;;;4.20;99.90;;;;;;4986910;28;20050;-87
2023/04/04 00:24:34;;;;;;;6.43;2.50;;;4.20;99.90;;;;;;4986525;28;20053;-87
2023/04/04 00:27:00;;;;;;;5.25;1.92;;;4.20;99.90;;;;;;4989574;28;20053;-87
2023/04/04 00:29:26;;;;;;;5.47;2.58;;;4.20;99.90;;;;;;4976878;28;20140;-87
2023/04/04 00:31:52;;;;;;;9.00;2.88;;;4.20;99.90;;;;;;4990518;28;20052;-86
2023/04/04 00:34:17;;;;;;;6.80;3.38;;;4.20;99.90;;;;;;4989539;28;20215;-86
2023/04/04 00:36:43;;;;;;;6.05;2.35;;;4.20;99.90;;;;;;4994909;28;20050;-87
2023/04/04 00:39:09;;;;;;;7.55;2.85;;;4.20;99.90;;;;;;4990009;28;20045;-86
2023/04/04 00:41:35;;;;;;;7.32;2.50;;;4.20;99.90;;;;;;4988335;28;20128;-86
2023/04/04 00:44:01;;;;;;;5.75;2.42;;;4.10;99.90;;;;;;4974610;28;20042;-87
2023/04/04 00:46:28;;;;;;;5.80;2.60;;;4.10;99.90;;;;;;4991614;28;20132;-86
2023/04/04 00:48:54;;;;;;;8.15;2.75;;;4.10;99.90;;;;;;4987412;28;20048;-86
2023/04/04 00:51:21;;;;;;;6.85;2.50;;;4.10;99.90;;;;;;4990166;28;20049;-88
2023/04/04 00:53:49;;;;;;;6.78;3.30;;;4.00;99.90;;;;;;4987203;28;20164;-86
2023/04/04 00:56:15;;;;;;;6.13;3.22;;;4.00;99.90;;;;;;4987179;28;20046;-86
2023/04/04 00:58:42;;;;;;;7.03;2.45;;;4.00;99.90;;;;;;4983348;28;20592;-87
2023/04/04 01:01:10;;;;;;;8.32;2.63;;;4.00;99.90;;;;;;4988046;28;20038;-87
2023/04/04 01:03:36;;;;;;;8.57;3.30;;;4.00;99.90;;;;;;4994446;28;20046;-86
2023/04/04 01:06:02;;;;;;;5.38;3.03;;;3.90;99.90;;;;;;4988041;28;20051;-86
2023/04/04 01:08:29;;;;;;;6.38;2.80;;;3.90;99.90;;;;;;4992233;28;20048;-86
2023/04/04 01:10:55;;;;;;;7.15;2.97;;;3.90;99.90;;;;;;4987446;28;20039;-86
2023/04/04 01:13:21;;;;;;;6.72;3.53;;;3.90;99.90;;;;;;4987516;28;20042;-87
2023/04/04 01:15:47;;;;;;;9.10;3.35;;;3.90;99.90;;;;;;4989032;28;20041;-87
2023/04/04 01:18:17;;;;;;;8.75;3.08;;;3.80;99.90;;;;;;4988525;28;20041;-86
2023/04/04 01:20:53;;;;;;;7.97;3.15;;;3.80;99.90;;;;;;4983537;28;20406;-86
2023/04/04 01:23:23;;;;;;;6.90;2.65;;;3.80;99.90;;;;;;4987597;28;20121;-87
2023/04/04 01:25:48;;;;;;;6.10;2.92;;;3.90;99.90;;;;;;4988565;28;20116;-86
2023/04/04 01:28:14;;;;;;;7.78;3.17;;;3.80;99.90;;;;;;4987442;28;20718;-87
2023/04/04 01:30:41;;;;;;;7.18;3.10;;;3.80;99.90;;;;;;4981160;28;20050;-86
2023/04/04 01:33:19;;;;;;;9.07;3.55;;;3.80;99.90;;;;;;4988842;28;20130;-86
2023/04/04 01:36:08;;;;;;;9.48;3.33;;;3.80;99.90;;;;;;4988781;28;20514;-86
2023/04/04 01:38:50;;;;;;;7.18;2.80;;;3.80;99.90;;;;;;4991634;28;20042;-86
2023/04/04 01:41:19;;;;;;;6.65;3.50;;;3.80;99.90;;;;;;4988512;28;20058;-86
2023/04/04 01:43:48;;;;;;;6.28;3.03;;;3.70;99.90;;;;;;4991919;28;20800;-86
2023/04/04 01:46:16;;;;;;;7.75;3.47;;;3.70;99.90;;;;;;4994228;28;20123;-87
2023/04/04 01:48:42;;;;;;;6.90;3.60;;;3.70;99.90;;;;;;4969083;28;20053;-87
2023/04/04 01:51:08;;;;;;;8.88;3.58;;;3.70;99.90;;;;;;4992183;28;20555;-86
2023/04/04 01:53:34;;;;;;;7.57;3.10;;;4.40;99.90;;;;;;4986472;28;20080;-85
2023/04/04 01:56:00;;;;;;;6.50;3.75;;;3.90;99.90;;;;;;4990074;28;20077;-87
2023/04/04 01:58:26;;;;;;;8.38;3.92;;;3.70;99.90;;;;;;4988473;28;20571;-86
2023/04/04 02:00:51;;;;;;;7.40;3.22;;;3.70;99.90;;;;;;4985177;28;20046;-86
2023/04/04 02:03:17;;;;;;;8.13;2.85;;;3.60;99.90;;;;;;4993238;28;20045;-86
2023/04/04 02:05:43;;;;;;;7.88;3.30;;;3.60;99.90;;;;;;4991486;28;20714;-87
2023/04/04 02:08:09;;;;;;;7.95;3.60;;;3.60;99.90;;;;;;4991603;28;20052;-87
2023/04/04 02:10:34;;;;;;;8.27;3.58;;;3.60;99.90;;;;;;4991068;28;20049;-86
2023/04/04 02:13:00;;;;;;;6.85;3.40;;;3.50;99.90;;;;;;4990081;28;20105;-87
2023/04/04 02:15:26;;;;;;;10.50;3.30;;;3.50;99.90;;;;;;4977595;28;20072;-86
2023/04/04 02:17:52;;;;;;;6.57;3.30;;;3.50;99.90;;;;;;4990805;28;20050;-86
2023/04/04 02:20:18;;;;;;;11.23;4.50;;;3.50;99.90;;;;;;4990028;28;20472;-86
2023/04/04 02:22:52;;;;;;;7.20;3.00;;;3.40;99.90;;;;;;4975479;28;20046;-86
2023/04/04 02:25:18;;;;;;;9.77;3.65;;;3.40;99.90;;;;;;4987836;28;20045;-86
2023/04/04 02:27:44;;;;;;;7.88;3.50;;;3.40;99.90;;;;;;4988503;28;20802;-87
2023/04/04 02:30:11;;;;;;;6.72;2.88;;;3.40;99.90;;;;;;4989755;28;20034;-86
2023/04/04 02:32:37;;;;;;;9.38;4.38;;;3.30;99.90;;;;;;4978284;28;20045;-87
2023/04/04 02:35:03;;;;;;;5.43;2.95;;;3.30;99.90;;;;;;4982402;28;20042;-86
2023/04/04 02:37:29;;;;;;;6.40;3.42;;;3.30;99.90;;;;;;4985170;28;20477;-86
2023/04/04 02:39:55;;;;;;;6.53;3.47;;;3.30;99.90;;;;;;4988171;28;20035;-86
2023/04/04 02:42:20;;;;;;;7.93;3.63;;;3.30;99.90;;;;;;4984304;28;20061;-86
2023/04/04 02:44:46;;;;;;;9.15;3.05;;;3.30;99.90;;;;;;4986039;28;20042;-87
2023/04/04 02:47:12;;;;;;;8.10;3.67;;;3.30;99.90;;;;;;4987005;28;20491;-86
2023/04/04 02:49:38;;;;;;;6.80;3.30;;;3.20;99.90;;;;;;4993782;28;20109;-86
2023/04/04 02:52:04;;;;;;;8.10;3.65;;;3.20;99.90;;;;;;4988918;28;20050;-86
2023/04/04 02:54:29;;;;;;;10.05;3.53;;;3.20;99.90;;;;;;4990002;28;20050;-86
2023/04/04 02:56:55;;;;;;;9.43;4.00;;;3.20;99.90;;;;;;4973430;28;20050;-86
2023/04/04 02:59:21;;;;;;;8.27;4.10;;;3.20;99.90;;;;;;4986514;28;20191;-86
2023/04/04 03:01:46;;;;;;;8.73;4.10;;;3.10;99.90;;;;;;4994026;28;20042;-86
2023/04/04 03:04:12;;;;;;;6.63;3.97;;;3.00;99.90;;;;;;4981622;28;20053;-87
2023/04/04 03:06:40;;;;;;;8.52;4.10;;;3.00;99.90;;;;;;4991387;28;20049;-86
2023/04/04 03:09:06;;;;;;;7.70;4.15;;;3.00;99.90;;;;;;4985835;28;20508;-86
2023/04/04 03:11:32;;;;;;;9.77;3.92;;;3.00;99.90;;;;;;4992864;28;20053;-85
2023/04/04 03:13:57;;;;;;;10.43;4.20;;;2.90;99.90;;;;;;4981951;28;20159;-86
2023/04/04 03:16:24;;;;;;;8.07;3.45;;;2.80;99.90;;;;;;4992465;28;20038;-86
2023/04/04 03:18:50;;;;;;;9.00;4.43;;;2.80;99.90;;;;;;4981960;28;20073;-85
2023/04/04 03:21:16;;;;;;;7.00;4.20;;;2.70;99.90;;;;;;4982819;28;21331;-86
2023/04/04 03:23:41;;;;;;;8.82;4.22;;;2.60;99.90;;;;;;4986962;28;20372;-86
2023/04/04 03:26:08;;;;;;;10.75;4.30;;;2.60;99.90;;;;;;4987652;28;20038;-86
2023/04/04 03:28:34;;;;;;;9.18;4.18;;;2.30;99.90;;;;;;4981984;28;20125;-86
2023/04/04 03:31:04;;;;;;;7.10;3.50;;;2.60;99.90;;;;;;4989555;28;20115;-86
2023/04/04 03:33:30;;;;;;;8.18;4.18;;;2.60;99.90;;;;;;4985323;28;20142;-86
2023/04/04 03:35:55;;;;;;;9.98;4.68;;;2.50;99.90;;;;;;4992835;28;20049;-86
2023/04/04 03:38:21;;;;;;;14.80;4.90;;;2.40;99.90;;;;;;4988979;28;20050;-86
2023/04/04 03:40:46;;;;;;;7.80;4.00;;;2.40;99.90;;;;;;4994749;28;20157;-85
2023/04/04 03:43:12;;;;;;;6.80;4.15;;;2.40;99.90;;;;;;4992082;28;20069;-85
2023/04/04 03:45:38;;;;;;;8.38;4.35;;;2.30;99.90;;;;;;4994526;28;20085;-86
2023/04/04 03:48:03;;;;;;;9.13;3.83;;;2.40;99.90;;;;;;4979307;28;20092;-86
2023/04/04 03:50:30;;;;;;;8.60;4.40;;;2.20;99.90;;;;;;4994859;28;20049;-86
2023/04/04 03:52:57;;;;;;;9.35;4.10;;;2.20;99.90;;;;;;4991220;28;20587;-86
2023/04/04 03:55:23;;;;;;;9.65;4.47;;;2.10;99.90;;;;;;4986256;28;20488;-86
2023/04/04 03:57:48;;;;;;;7.88;4.13;;;2.10;99.90;;;;;;4992815;28;20073;-86
2023/04/04 04:00:15;;;;;;;8.55;4.65;;;2.10;99.90;;;;;;4989807;28;20041;-86
2023/04/04 04:02:40;;;;;;;7.80;4.53;;;2.10;99.90;;;;;;4993326;28;20086;-86
2023/04/04 04:05:06;;;;;;;8.32;4.57;;;2.10;99.90;;;;;;4994525;28;20246;-86
2023/04/04 04:07:32;;;;;;;8.35;4.57;;;2.00;99.90;;;;;;4994706;28;20158;-86
2023/04/04 04:09:58;;;;;;;8.48;4.47;;;2.00;99.90;;;;;;4987070;28;20626;-86
2023/04/04 04:12:25;;;;;;;11.85;4.90;;;2.00;99.90;;;;;;4994363;28;20034;-86
2023/04/04 04:14:50;;;;;;;10.82;4.28;;;2.10;99.90;;;;;;4995096;28;20403;-86
2023/04/04 04:17:16;;;;;;;9.07;4.35;;;2.00;99.90;;;;;;4994689;28;20046;-86
2023/04/04 04:19:42;;;;;;;7.80;3.80;;;2.10;99.90;;;;;;4990397;28;20070;-85
2023/04/04 04:22:07;;;;;;;8.13;4.60;;;2.10;99.90;;;;;;4983705;28;20100;-86
2023/04/04 04:24:33;;;;;;;13.02;5.50;;;2.10;99.90;;;;;;4994520;28;20057;-87
2023/04/04 04:26:59;;;;;;;7.90;4.47;;;2.10;99.90;;;;;;4988566;28;20053;-86
2023/04/04 04:29:25;;;;;;;10.13;4.38;;;2.00;99.90;;;;;;4979027;28;20049;-86
2023/04/04 04:31:51;;;;;;;8.95;4.15;;;2.00;99.90;;;;;;4986252;28;20080;-85
2023/04/04 04:34:17;;;;;;;8.52;4.57;;;1.90;99.90;;;;;;4985459;28;20115;-86
2023/04/04 04:36:43;;;;;;;9.93;5.00;;;1.90;99.90;;;;;;4994385;28;20046;-85
2023/04/04 04:39:08;;;;;;;10.57;5.30;;;1.90;99.90;;;;;;4988998;28;20038;-86
2023/04/04 04:41:35;;;;;;;9.93;4.82;;;1.90;99.90;;;;;;4986490;28;20231;-86
2023/04/04 04:44:01;;;;;;;11.13;5.80;;;2.20;99.90;;;;;;4983496;28;20257;-86
2023/04/04 04:46:26;;;;;;;7.82;4.45;;;1.80;99.90;;;;;;4989347;28;20587;-85
2023/04/04 04:48:52;;;;;;;9.10;4.60;;;1.80;99.90;;;;;;4988596;28;20587;-86
2023/04/04 04:51:18;;;;;;;9.77;4.82;;;1.80;99.90;;;;;;4972915;28;20038;-86
2023/04/04 04:53:43;;;;;;;9.27;4.68;;;1.80;99.90;;;;;;4983769;28;20116;-86
2023/04/04 04:56:09;;;;;;;11.02;5.82;;;1.80;99.90;;;;;;4990876;28;20492;-86
2023/04/04 04:58:35;;;;;;;10.43;4.82;;;1.80;99.90;;;;;;4995629;28;20054;-86
2023/04/04 05:01:00;;;;;;;9.68;5.18;;;1.80;99.90;;;;;;4994337;28;20049;-86
2023/04/04 05:03:26;;;;;;;11.25;4.80;;;1.80;99.90;;;;;;4985803;28;20103;-86
2023/04/04 05:05:52;;;;;;;10.93;5.75;;;1.80;99.90;;;;;;4984525;28;20050;-85
2023/04/04 05:08:18;;;;;;;13.07;5.25;;;1.70;99.90;;;;;;4978136;28;20233;-86
2023/04/04 05:10:44;;;;;;;12.38;4.80;;;1.70;99.90;;;;;;4980004;28;20072;-87
2023/04/04 05:13:12;;;;;;;8.43;4.43;;;1.70;99.90;;;;;;4993315;28;20062;-87
2023/04/04 05:15:38;;;;;;;8.75;4.97;;;1.70;99.90;;;;;;4994792;28;20073;-91
2023/04/04 05:18:04;;;;;;;10.30;5.15;;;1.70;99.90;;;;;;4988957;28;20116;-89
2023/04/04 05:20:30;;;;;;;8.52;4.50;;;1.70;99.90;;;;;;4990944;28;20491;-88
2023/04/04 05:22:56;;;;;;;8.98;4.63;;;1.70;99.90;;;;;;5001597;28;20042;-85
2023/04/04 05:25:22;;;;;;;10.43;5.07;;;1.70;99.90;;;;;;4965448;28;20498;-87
2023/04/04 05:27:48;;;;;;;10.50;5.20;;;1.70;99.90;;;;;;4987072;28;20049;-89
2023/04/04 05:30:14;;;;;;;11.23;5.05;;;1.70;99.90;;;;;;4995091;28;20049;-87
2023/04/04 05:32:46;;;;;;;8.32;4.40;;;1.70;99.90;;;;;;4998816;28;20056;-91
2023/04/04 05:35:11;;;;;;;10.93;5.10;;;1.70;99.90;;;;;;4996714;28;20049;-91
2023/04/04 05:37:39;;;;;;;8.85;4.70;;;1.80;99.90;;;;;;4996641;28;20038;-91
2023/04/04 05:40:06;;;;;;;11.13;4.70;;;1.80;99.90;;;;;;4983536;28;20458;-90
2023/04/04 05:42:31;;;;;;;10.43;5.25;;;1.80;99.90;;;;;;4993112;28;20050;-91
2023/04/04 05:44:57;;;;;;;10.25;5.57;;;1.80;99.90;;;;;;4999790;28;20130;-90
2023/04/04 05:47:23;;;;;;;12.02;5.80;;;1.90;99.90;;;;;;4988729;28;20053;-89
2023/04/04 05:49:48;;;;;;;10.85;5.10;;;1.90;99.90;;;;;;4991219;28;20599;-90
2023/04/04 05:52:15;;;;;;;9.68;4.75;;;1.90;99.90;;;;;;4993778;28;21381;-89
2023/04/04 05:54:41;;;;;;;9.95;5.22;;;1.90;99.90;;;;;;4996941;28;20049;-89
2023/04/04 05:57:07;;;;;;;11.45;5.22;;;1.90;99.90;;;;;;4998478;28;20069;-90
2023/04/04 05:59:33;;;;;;;9.18;5.53;;;1.90;99.90;;;;;;4996213;28;20041;-90
2023/04/04 06:02:00;;;;;;;9.30;4.65;;;1.90;99.90;;;;;;4998364;28;20050;-89
2023/04/04 06:04:25;;;;;;;11.63;5.15;;;1.90;99.90;;;;;;4999952;28;20108;-90
2023/04/04 06:06:51;;;;;;;8.27;4.57;;;2.60;99.90;;;;;;4995026;28;20042;-90
2023/04/04 06:09:17;;;;;;;9.60;4.35;;;2.00;99.90;;;;;;4992197;28;20057;-91
2023/04/04 06:11:42;;;;;;;9.70;4.47;;;2.00;99.90;;;;;;4997431;28;20108;-89
2023/04/04 06:14:08;;;;;;;8.80;4.47;;;2.00;99.90;;;;;;4997620;28;20038;-89
2023/04/04 06:16:35;;;;;;;9.02;4.05;;;2.00;99.90;;;;;;4994283;28;21768;-90
2023/04/04 06:19:00;;;;;;;9.25;3.97;;;2.10;99.90;;;;;;4982528;28;20038;-87
2023/04/04 06:21:26;;;;;;;7.45;3.95;;;2.10;99.90;;;;;;4994946;28;20466;-87
2023/04/04 06:23:55;;;;;;;9.65;4.00;;;2.10;99.90;;;;;;4992072;28;20164;-87
2023/04/04 06:26:21;;;;;;;11.35;5.07;;;2.10;99.90;;;;;;4987302;28;20042;-87
2023/04/04 06:28:50;;;;;;;9.30;3.53;;;2.10;99.90;;;;;;4993690;28;20337;-85
2023/04/04 06:31:16;;;;;;;7.50;3.70;;;2.10;99.90;;;;;;4978948;28;20045;-88
2023/04/04 06:33:42;;;;;;;11.65;3.88;;;2.10;99.90;;;;;;4987190;28;20048;-85
2023/04/04 06:36:08;;;;;;;9.60;3.40;;;2.10;99.90;;;;;;4988855;28;20042;-85
2023/04/04 06:38:34;;;;;;;7.72;3.63;;;2.10;99.90;;;;;;4991564;28;20882;-86
2023/04/04 06:40:59;;;;;;;10.23;3.50;;;2.10;99.90;;;;;;4995963;28;20057;-85
2023/04/04 06:43:25;;;;;;;9.05;3.33;;;2.20;99.90;;;;;;4988093;28;20046;-86
2023/04/04 06:45:51;;;;;;;9.30;3.25;;;2.20;99.90;;;;;;4990446;28;20360;-85
2023/04/04 06:48:16;;;;;;;8.02;3.47;;;2.20;99.90;;;;;;4984765;28;20034;-86
2023/04/04 06:50:42;;;;;;;8.10;3.30;;;2.20;99.90;;;;;;4973200;28;20096;-86
2023/04/04 06:53:08;;;;;;;9.57;3.10;;;2.30;99.90;;;;;;4983916;28;20049;-85
2023/04/04 06:55:34;;;;;;;6.80;3.00;;;2.30;99.90;;;;;;4991715;28;20543;-85
2023/04/04 06:58:00;;;;;;;8.45;3.28;;;2.30;99.90;;;;;;4987229;28;20037;-85
2023/04/04 07:00:25;;;;;;;6.40;2.80;;;2.40;99.90;;;;;;4986859;28;20054;-85
2023/04/04 07:02:58;;;;;;;12.02;3.17;;;2.40;99.90;;;;;;4988105;28;20161;-86
2023/04/04 07:05:24;;;;;;;7.82;3.22;;;2.40;99.90;;;;;;4982507;28;20042;-85
2023/04/04 07:07:55;;;;;;;9.60;5.63;;;2.50;99.90;;;;;;4983970;28;20141;-85
2023/04/04 07:10:22;;;;;;;7.00;3.03;;;2.50;99.90;;;;;;4994793;28;20127;-85
2023/04/04 07:12:48;;;;;;;8.43;2.92;;;2.50;99.90;;;;;;4996106;28;20108;-86
2023/04/04 07:15:13;;;;;;;6.22;2.72;;;2.60;99.90;;;;;;4990225;28;20045;-86
2023/04/04 07:17:40;;;;;;;6.47;2.70;;;2.60;99.90;;;;;;4989983;28;20042;-86
2023/04/04 07:20:07;;;;;;;7.00;2.53;;;2.60;99.90;;;;;;4990854;28;20046;-85
2023/04/04 07:22:35;;;;;;;6.75;2.60;;;2.70;99.90;;;;;;4988777;28;20050;-85
2023/04/04 07:25:01;;;;;;;7.63;2.80;;;2.70;99.90;;;;;;4996520;28;20121;-86
2023/04/04 07:27:27;;;;;;;8.93;2.92;;;2.70;99.90;;;;;;4980935;28;20498;-86
2023/04/04 07:29:53;;;;;;;9.30;2.80;;;2.70;99.90;;;;;;4994921;28;20046;-85
2023/04/04 07:32:18;;;;;;;8.27;2.90;;;2.80;99.90;;;;;;4997035;28;20112;-85
2023/04/04 07:34:44;;;;;;;8.15;3.10;;;2.80;99.90;;;;;;4990898;28;20045;-86
2023/04/04 07:37:10;;;;;;;5.72;2.88;;;2.80;99.90;;;;;;4994515;28;20045;-86
2023/04/04 07:39:36;;;;;;;10.50;3.05;;;2.80;99.90;;;;;;4989074;28;20042;-85
2023/04/04 07:42:02;;;;;;;8.93;2.92;;;3.00;99.90;;;;;;4988065;28;20156;-86
2023/04/04 07:44:27;;;;;;;7.28;3.38;;;2.90;99.90;;;;;;4989484;28;20213;-86
2023/04/04 07:46:53;;;;;;;6.82;2.92;;;3.00;99.90;;;;;;4997800;28;20041;-88
2023/04/04 07:49:19;;;;;;;6.18;2.60;;;3.00;99.90;;;;;;4988607;28;20037;-87
2023/04/04 07:51:44;;;;;;;6.82;2.90;;;3.10;99.90;;;;;;4990530;28;20798;-87
2023/04/04 07:54:10;;;;;;;6.30;2.33;;;3.10;99.90;;;;;;4989137;28;20073;-87
2023/04/04 07:56:36;;;;;;;12.50;3.20;;;3.20;99.90;;;;;;4989595;28;20552;-88
2023/04/04 07:59:01;;;;;;;4.95;2.30;;;3.20;99.90;;;;;;4993349;28;20100;-86
2023/04/04 08:01:27;;;;;;;6.63;2.72;;;3.30;99.90;;;;;;4988487;28;20045;-87
2023/04/04 08:03:53;;;;;;;7.35;2.13;;;3.40;99.90;;;;;;4987255;28;20097;-87
2023/04/04 08:06:18;;;;;;;7.65;2.40;;;3.40;99.90;;;;;;4993780;28;20148;-88
2023/04/04 08:08:46;;;;;;;5.30;2.60;;;3.40;99.90;;;;;;4999276;28;20129;-88
2023/04/04 08:11:12;;;;;;;7.35;2.53;;;3.50;99.90;;;;;;4976860;28;20042;-88
2023/04/04 08:13:38;;;;;;;5.95;2.25;;;3.50;99.90;;;;;;4995170;28;20045;-87
2023/04/04 08:16:04;;;;;;;8.30;2.53;;;3.60;99.90;;;;;;4996513;28;20054;-87
2023/04/04 08:18:31;;;;;;;6.80;2.60;;;3.60;99.90;;;;;;4994087;28;20121;-88
2023/04/04 08:20:57;;;;;;;6.40;2.70;;;3.70;99.90;;;;;;4985522;28;20560;-88
2023/04/04 08:23:22;;;;;;;7.22;2.53;;;3.70;99.90;;;;;;4989657;28;20046;-87
2023/04/04 08:25:48;;;;;;;14.45;2.95;;;3.80;99.90;;;;;;4986514;28;20030;-88
2023/04/04 08:28:14;;;;;;;4.40;1.90;;;3.80;99.90;;;;;;4986255;28;20038;-88
2023/04/04 08:30:40;;;;;;;8.77;2.58;;;3.90;99.90;;;;;;4980160;28;20503;-86
2023/04/04 08:33:06;;;;;;;5.55;2.28;;;4.00;99.90;;;;;;4993606;28;20073;-87
2023/04/04 08:35:32;;;;;;;5.18;1.70;;;4.00;99.90;;;;;;4989593;28;20571;-88
2023/04/04 08:37:57;;;;;;;11.10;2.17;;;4.10;99.90;;;;;;4978965;28;20149;-87
2023/04/04 08:40:23;;;;;;;7.82;2.03;;;4.20;99.90;;;;;;4990956;28;20141;-87
2023/04/04 08:42:50;;;;;;;6.40;1.90;;;4.90;99.90;;;;;;4996732;28;20412;-88
2023/04/04 08:45:18;;;;;;;6.18;1.90;;;4.40;99.90;;;;;;4993863;28;20042;-88
2023/04/04 08:47:45;;;;;;;3.92;1.67;;;4.50;99.90;;;;;;4996303;28;20758;-88
2023/04/04 08:50:11;;;;;;;6.85;1.65;;;4.60;99.90;;;;;;4990451;28;20488;-88
2023/04/04 08:52:38;;;;;;;4.53;1.40;;;4.80;99.90;;;;;;4995408;28;20053;-87
2023/04/04 08:55:05;;;;;;;5.03;1.85;;;4.90;99.90;;;;;;4993681;28;20046;-87
2023/04/04 08:57:32;;;;;;;3.88;1.00;;;5.00;99.90;;;;;;4992161;28;20070;-87
2023/04/04 08:59:58;;;;;;;4.88;1.50;;;5.20;99.90;;;;;;4986719;28;20096;-87
2023/04/04 09:03:01;;;;;;;8.73;1.63;;;5.20;99.90;;;;;;4992728;28;20460;-88
2023/04/04 09:05:28;;;;;;;9.23;1.40;;;5.40;99.90;;;;;;4987129;28;20054;-88
2023/04/04 09:07:55;;;;;;;5.93;1.50;;;5.60;99.90;;;;;;4995118;28;20084;-88
2023/04/04 09:10:22;;;;;;;5.20;1.42;;;5.70;99.90;;;;;;4989232;28;20124;-87
2023/04/04 09:12:49;;;;;;;4.82;1.50;;;5.80;99.90;;;;;;4975928;28;20046;-88
2023/04/04 09:15:15;;;;;;;4.20;1.88;;;6.00;99.90;;;;;;4982449;28;20081;-87
2023/04/04 09:17:41;;;;;;;5.60;1.50;;;6.20;99.90;;;;;;4994170;28;20141;-88
2023/04/04 09:20:35;;;;;;;7.82;1.65;;;6.30;99.90;;;;;;4979390;28;20501;-89
2023/04/04 09:23:04;;;;;;;8.15;2.10;;;6.50;99.90;;;;;;4987575;28;20048;-89
2023/04/04 09:25:30;;;;;;;7.05;1.60;;;6.70;99.90;;;;;;4996347;28;20042;-87
2023/04/04 09:27:56;;;;;;;4.55;1.58;;;6.80;99.90;;;;;;4990055;28;20053;-89
2023/04/04 09:30:23;;;;;;;4.15;1.65;;;6.90;99.90;;;;;;4991138;28;20068;-88
2023/04/04 09:32:50;;;;;;;5.93;1.88;;;7.00;99.90;;;;;;4989287;28;20050;-87
2023/04/04 09:35:15;;;;;;;5.60;1.58;;;7.10;99.90;;;;;;4990327;28;20078;-88
2023/04/04 09:37:42;;;;;;;4.22;1.70;;;7.20;99.90;;;;;;4995702;28;20168;-87
2023/04/04 09:40:09;;;;;;;5.22;1.63;;;7.40;99.90;;;;;;4987806;28;20038;-88
2023/04/04 09:42:35;;;;;;;3.78;1.30;;;7.40;99.90;;;;;;4990302;28;20054;-88
2023/04/04 09:45:01;;;;;;;5.57;1.70;;;8.10;99.90;;;;;;4977603;28;20578;-88
2023/04/04 09:47:29;;;;;;;7.75;1.45;;;7.60;99.90;;;;;;4995777;28;20065;-89
2023/04/04 09:50:05;;;;;;;7.63;1.60;;;7.70;99.90;;;;;;4993803;28;20049;-88
2023/04/04 09:52:34;;;;;;;5.13;1.40;;;7.80;99.90;;;;;;4991708;28;20050;-88
2023/04/04 09:55:03;;;;;;;5.60;2.00;;;7.90;99.90;;;;;;4979018;28;20065;-88
2023/04/04 09:57:30;;;;;;;6.10;1.65;;;8.00;99.90;;;;;;4990322;28;20049;-87
2023/04/04 10:00:05;;;;;;;6.70;1.65;;;8.20;99.90;;;;;;4988491;28;20574;-88
2023/04/04 10:02:31;;;;;;;2.92;1.20;;;8.30;99.90;;;;;;4992326;28;20049;-88
2023/04/04 10:04:57;;;;;;;4.28;1.13;;;8.40;99.90;;;;;;4989126;28;20034;-87
2023/04/04 10:07:28;;;;;;;6.28;1.52;;;8.50;99.90;;;;;;4996550;28;20480;-87
2023/04/04 10:09:55;;;;;;;6.72;1.48;;;8.60;99.90;;;;;;4985682;28;20084;-88
2023/04/04 10:12:24;;;;;;;3.92;1.38;;;8.70;99.90;;;;;;4989883;28;20045;-87
2023/04/04 10:14:57;;;;;;;6.55;1.92;;;8.80;99.60;;;;;;4990033;28;20049;-89
2023/04/04 10:17:29;;;;;;;4.20;1.05;;;9.00;99.40;;;;;;4986794;28;20046;-88
2023/04/04 10:19:58;;;;;;;5.22;1.90;;;8.90;99.30;;;;;;4986067;28;20306;-89
2023/04/04 10:22:24;;;;;;;6.45;1.50;;;9.00;99.00;;;;;;4994369;28;20038;-88
2023/04/04 10:24:52;;;;;;;6.40;1.65;;;9.10;99.90;;;;;;4990637;28;20108;-89
2023/04/04 10:27:19;;;;;;;4.28;1.75;;;9.20;99.50;;;;;;4990551;28;20157;-88
2023/04/04 10:29:45;;;;;;;3.85;1.52;;;9.30;98.20;;;;;;4985092;28;20113;-89
2023/04/04 10:32:19;;;;;;;5.95;1.80;;;9.60;98.70;;;;;;4984732;28;20046;-88
2023/04/04 10:35:02;;;;;;;5.53;1.73;;;9.50;98.00;;;;;;4988050;28;20095;-88
2023/04/04 10:37:36;;;;;;;6.22;1.73;;;9.60;96.60;;;;;;4993990;28;20041;-88
2023/04/04 10:40:09;;;;;;;4.32;1.58;;;9.70;95.10;;;;;;4983687;28;20054;-89
2023/04/04 10:42:40;;;;;;;5.75;1.98;;;9.80;94.50;;;;;;4973953;28;20103;-87
2023/04/04 10:45:09;;;;;;;7.95;2.63;;;10.20;96.00;;;;;;4981411;28;20050;-88
2023/04/04 10:47:36;;;;;;;4.30;1.45;;;10.00;95.80;;;;;;4988389;28;20043;-89
2023/04/04 10:50:06;;;;;;;5.63;1.70;;;10.10;96.40;;;;;;4986391;28;20052;-90
2023/04/04 10:52:32;;;;;;;4.85;1.50;;;10.10;95.60;;;;;;4989567;28;20051;-89
2023/04/04 10:55:05;;;;;;;5.85;1.73;;;10.30;96.00;;;;;;4987851;28;20396;-90
2023/04/04 10:57:32;;;;;;;6.20;1.65;;;10.20;95.20;;;;;;4983943;28;20052;-91
2023/04/04 11:00:12;;;;;;;5.28;1.60;;;10.30;95.90;;;;;;4990172;28;20053;-90
2023/04/04 11:02:56;;;;;;;5.20;1.60;;;10.40;94.50;;;;;;4987566;28;20038;-90
2023/04/04 11:05:49;;;;;;;4.53;1.48;;;10.30;93.70;;;;;;4989293;28;20053;-90
2023/04/04 11:08:18;;;;;;;7.50;1.80;;;10.40;94.50;;;;;;4989754;28;20133;-89
2023/04/04 11:10:47;;;;;;;6.40;2.10;;;10.40;94.60;;;;;;4990711;28;20056;-90
2023/04/04 11:13:34;;;;;;;5.18;1.30;;;10.50;94.30;;;;;;4988302;28;20050;-90
2023/04/04 11:16:03;;;;;;;4.47;1.48;;;10.50;95.80;;;;;;4986416;28;20054;-90
2023/04/04 11:18:41;;;;;;;3.92;1.50;;;10.60;95.10;;;;;;4990768;28;20066;-90
2023/04/04 11:21:14;;;;;;;6.88;1.77;;;10.70;95.00;;;;;;4988427;28;20041;-90
2023/04/04 11:24:03;;;;;;;6.03;1.50;;;10.80;94.30;;;;;;4984235;28;20460;-89
2023/04/04 11:26:29;;;;;;;5.10;1.60;;;10.90;93.70;;;;;;4992533;28;20050;-91
2023/04/04 11:28:58;;;;;;;5.47;1.58;;;10.90;93.70;;;;;;4987148;28;20045;-90
2023/04/04 11:31:26;;;;;;;6.22;1.92;;;11.00;93.20;;;;;;4981417;28;20396;-90
2023/04/04 11:33:56;;;;;;;5.07;1.83;;;11.30;94.10;;;;;;4990939;28;20188;-89
2023/04/04 11:36:50;;;;;;;4.65;1.95;;;11.20;91.50;;;;;;4992475;28;20038;-91
2023/04/04 11:39:25;;;;;;;6.18;2.13;;;11.20;93.00;;;;;;4988167;28;20050;-91
2023/04/04 11:41:54;;;;;;;4.43;1.52;;;11.30;92.30;;;;;;4993048;28;20062;-90
2023/04/04 11:44:29;;;;;;;4.03;1.70;;;11.30;92.20;;;;;;4987633;28;20058;-90
2023/04/04 11:47:18;;;;;;;7.47;1.63;;;11.40;93.20;;;;;;4972153;28;20061;-89
2023/04/04 11:49:45;;;;;;;7.30;2.13;;;11.50;93.50;;;;;;4982079;28;20046;-91
2023/04/04 11:52:17;;;;;;;4.35;1.52;;;11.50;93.10;;;;;;4977409;28;20044;-90
2023/04/04 11:54:45;;;;;;;4.93;1.60;;;11.50;93.60;;;;;;4989158;28;20125;-92
2023/04/04 11:57:15;;;;;;;6.63;2.15;;;11.40;94.20;;;;;;4982358;28;20111;-91
2023/04/04 11:59:42;;;;;;;4.50;1.90;;;11.40;93.90;;;;;;5000583;28;20103;-89
2023/04/04 12:02:14;;;;;;;5.10;1.60;;;11.30;93.10;;;;;;4998650;28;20038;-91
2023/04/04 12:04:44;;;;;;;4.05;1.60;;;11.40;92.30;;;;;;4994079;28;20113;-90
2023/04/04 12:07:14;;;;;;;4.47;1.42;;;11.50;92.60;;;;;;4996953;28;20133;-91
2023/04/04 12:09:41;;;;;;;7.15;1.63;;;11.70;91.30;;;;;;4995865;28;20033;-90
2023/04/04 12:12:11;;;;;;;5.45;2.30;;;11.90;87.50;;;;;;4995481;28;20054;-90
2023/04/04 12:14:38;;;;;;;5.88;1.77;;;11.90;92.40;;;;;;4983456;28;20260;-94
2023/04/04 12:17:04;;;;;;;4.13;1.42;;;11.90;90.50;;;;;;4996802;28;20047;-90
2023/04/04 12:19:34;;;;;;;5.72;1.67;;;11.80;90.00;;;;;;4984969;28;20046;-88
2023/04/04 12:22:00;;;;;;;5.78;1.50;;;11.80;90.20;;;;;;4988471;28;20129;-88
2023/04/04 12:24:26;;;;;;;3.90;1.70;;;11.80;89.20;;;;;;4990957;28;20038;-88
2023/04/04 12:26:52;;;;;;;4.63;1.67;;;11.90;89.10;;;;;;4984156;28;20046;-88
2023/04/04 12:29:21;;;;;;;4.10;1.73;;;12.00;89.20;;;;;;4993110;28;20125;-87
2023/04/04 12:31:48;;;;;;;5.57;1.88;;;12.00;89.10;;;;;;4989662;28;20073;-89
2023/04/04 12:34:24;;;;;;;5.63;1.90;;;12.10;89.70;;;;;;4988534;28;20113;-89
2023/04/04 12:36:58;;;;;;;4.13;1.55;;;12.10;87.80;;;;;;4996486;28;20037;-87
2023/04/04 12:39:28;;;;;;;6.55;1.67;;;12.20;91.00;;;;;;4985575;28;20046;-90
2023/04/04 12:41:58;;;;;;;6.15;2.00;;;12.10;90.30;;;;;;5001498;28;20152;-89
2023/04/04 12:44:39;;;;;;;5.40;1.92;;;12.10;91.20;;;;;;4991448;28;20057;-92
2023/04/04 12:47:07;;;;;;;5.85;1.90;;;12.00;90.00;;;;;;4997306;28;20045;-93
2023/04/04 12:49:46;;;;;;;5.05;2.03;;;12.10;88.40;;;;;;4994784;28;21481;-90
2023/04/04 12:52:16;;;;;;;3.28;1.60;;;12.10;90.00;;;;;;4991583;28;20089;-91
2023/04/04 12:54:46;;;;;;;4.68;2.00;;;12.10;83.30;;;;;;4990416;28;20774;-92